sensor_id;sensor_type;location;lat;lon;timestamp;P1;durP1;ratioP1;P2;durP2;ratioP2
64297;SDS011;50639;53.270;7.956;2023-09-18T00:00:04;10.18;;;5.30;;
64297;SDS011;50639;53.270;7.956;2023-09-18T00:02:34;7.63;;;5.30;;
64297;SDS011;50639;53.270;7.956;2023-09-18T00:04:59;9.70;;;5.15;;
64297;SDS011;50639;53.270;7.956;2023-09-18T00:07:25;8.07;;;5.32;;
64297;SDS011;50639;53.270;7.956;2023-09-18T00:09:50;7.88;;;5.05;;
64297;SDS011;50639;53.270;7.956;2023-09-18T00:12:16;9.98;;;5.20;;
64297;SDS011;50639;53.270;7.956;2023-09-18T00:14:42;10.80;;;5.47;;
64297;SDS011;50639;53.270;7.956;2023-09-18T00:17:07;10.48;;;5.00;;
64297;SDS011;50639;53.270;7.956;2023-09-18T00:19:33;10.48;;;5.60;;
64297;SDS011;50639;53.270;7.956;2023-09-18T00:21:59;11.50;;;6.32;;
64297;SDS011;50639;53.270;7.956;2023-09-18T00:24:26;9.50;;;5.40;;
64297;SDS011;50639;53.270;7.956;2023-09-18T00:26:52;8.35;;;4.38;;
64297;SDS011;50639;53.270;7.956;2023-09-18T00:29:18;9.68;;;5.35;;
64297;SDS011;50639;53.270;7.956;2023-09-18T00:31:44;9.68;;;5.45;;
64297;SDS011;50639;53.270;7.956;2023-09-18T00:34:09;15.20;;;5.35;;
64297;SDS011;50639;53.270;7.956;2023-09-18T00:36:35;5.90;;;4.60;;
64297;SDS011;50639;53.270;7.956;2023-09-18T00:39:00;10.35;;;6.10;;
64297;SDS011;50639;53.270;7.956;2023-09-18T00:41:27;9.05;;;5.03;;
64297;SDS011;50639;53.270;7.956;2023-09-18T00:43:52;10.75;;;6.15;;
64297;SDS011;50639;53.270;7.956;2023-09-18T00:46:17;7.93;;;5.82;;
64297;SDS011;50639;53.270;7.956;2023-09-18T00:48:43;7.95;;;5.40;;
64297;SDS011;50639;53.270;7.956;2023-09-18T00:51:08;9.32;;;6.45;;
64297;SDS011;50639;53.270;7.956;2023-09-18T00:53:35;7.72;;;5.75;;
64297;SDS011;50639;53.270;7.956;2023-09-18T00:56:02;8.73;;;5.20;;
64297;SDS011;50639;53.270;7.956;2023-09-18T00:58:28;9.07;;;5.38;;
64297;SDS011;50639;53.270;7.956;2023-09-18T01:00:54;9.18;;;5.15;;
64297;SDS011;50639;53.270;7.956;2023-09-18T01:03:21;11.23;;;5.43;;
64297;SDS011;50639;53.270;7.956;2023-09-18T01:05:47;8.75;;;5.80;;
64297;SDS011;50639;53.270;7.956;2023-09-18T01:08:13;9.65;;;6.25;;
64297;SDS011;50639;53.270;7.956;2023-09-18T01:10:42;9.00;;;6.95;;
64297;SDS011;50639;53.270;7.956;2023-09-18T01:13:14;10.38;;;6.50;;
64297;SDS011;50639;53.270;7.956;2023-09-18T01:16:30;9.57;;;7.20;;
64297;SDS011;50639;53.270;7.956;2023-09-18T01:18:51;12.38;;;7.72;;
64297;SDS011;50639;53.270;7.956;2023-09-18T01:21:20;10.27;;;7.28;;
64297;SDS011;50639;53.270;7.956;2023-09-18T01:23:46;13.77;;;8.27;;
64297;SDS011;50639;53.270;7.956;2023-09-18T01:26:13;10.68;;;7.57;;
64297;SDS011;50639;53.270;7.956;2023-09-18T01:28:39;15.32;;;9.45;;
64297;SDS011;50639;53.270;7.956;2023-09-18T01:31:04;14.13;;;10.68;;
64297;SDS011;50639;53.270;7.956;2023-09-18T01:33:30;11.60;;;8.80;;
64297;SDS011;50639;53.270;7.956;2023-09-18T01:35:56;13.75;;;9.55;;
64297;SDS011;50639;53.270;7.956;2023-09-18T01:38:25;9.25;;;7.40;;
64297;SDS011;50639;53.270;7.956;2023-09-18T01:40:52;11.52;;;7.30;;
64297;SDS011;50639;53.270;7.956;2023-09-18T01:43:19;11.50;;;9.10;;
64297;SDS011;50639;53.270;7.956;2023-09-18T01:45:44;9.52;;;7.20;;
64297;SDS011;50639;53.270;7.956;2023-09-18T01:48:11;12.60;;;8.30;;
64297;SDS011;50639;53.270;7.956;2023-09-18T01:50:36;12.27;;;9.20;;
64297;SDS011;50639;53.270;7.956;2023-09-18T01:53:02;10.15;;;8.52;;
64297;SDS011;50639;53.270;7.956;2023-09-18T01:55:28;13.98;;;9.65;;
64297;SDS011;50639;53.270;7.956;2023-09-18T01:57:55;12.10;;;7.50;;
64297;SDS011;50639;53.270;7.956;2023-09-18T02:00:21;12.93;;;9.00;;
64297;SDS011;50639;53.270;7.956;2023-09-18T02:02:46;10.85;;;8.35;;
64297;SDS011;50639;53.270;7.956;2023-09-18T02:05:12;19.70;;;12.23;;
64297;SDS011;50639;53.270;7.956;2023-09-18T02:07:37;11.80;;;8.75;;
64297;SDS011;50639;53.270;7.956;2023-09-18T02:10:03;13.13;;;11.27;;
64297;SDS011;50639;53.270;7.956;2023-09-18T02:12:29;11.63;;;8.77;;
64297;SDS011;50639;53.270;7.956;2023-09-18T02:14:54;10.85;;;8.10;;
64297;SDS011;50639;53.270;7.956;2023-09-18T02:19:48;10.23;;;7.63;;
64297;SDS011;50639;53.270;7.956;2023-09-18T02:22:13;8.77;;;7.00;;
64297;SDS011;50639;53.270;7.956;2023-09-18T02:24:38;10.57;;;8.20;;
64297;SDS011;50639;53.270;7.956;2023-09-18T02:27:04;14.13;;;10.70;;
64297;SDS011;50639;53.270;7.956;2023-09-18T02:29:30;13.77;;;11.80;;
64297;SDS011;50639;53.270;7.956;2023-09-18T02:31:56;13.45;;;10.73;;
64297;SDS011;50639;53.270;7.956;2023-09-18T02:34:21;13.85;;;11.98;;
64297;SDS011;50639;53.270;7.956;2023-09-18T02:36:47;16.55;;;12.60;;
64297;SDS011;50639;53.270;7.956;2023-09-18T02:39:12;19.10;;;13.32;;
64297;SDS011;50639;53.270;7.956;2023-09-18T02:41:38;17.38;;;14.07;;
64297;SDS011;50639;53.270;7.956;2023-09-18T02:44:03;17.65;;;14.02;;
64297;SDS011;50639;53.270;7.956;2023-09-18T02:46:29;20.83;;;16.58;;
64297;SDS011;50639;53.270;7.956;2023-09-18T02:48:55;22.15;;;15.73;;
64297;SDS011;50639;53.270;7.956;2023-09-18T02:51:21;20.08;;;14.80;;
64297;SDS011;50639;53.270;7.956;2023-09-18T02:53:48;23.48;;;16.42;;
64297;SDS011;50639;53.270;7.956;2023-09-18T02:56:15;21.70;;;15.98;;
64297;SDS011;50639;53.270;7.956;2023-09-18T02:58:41;14.18;;;11.95;;
64297;SDS011;50639;53.270;7.956;2023-09-18T03:01:06;15.05;;;12.65;;
64297;SDS011;50639;53.270;7.956;2023-09-18T03:03:33;16.52;;;13.40;;
64297;SDS011;50639;53.270;7.956;2023-09-18T03:06:02;14.25;;;12.48;;
64297;SDS011;50639;53.270;7.956;2023-09-18T03:08:30;15.15;;;13.15;;
64297;SDS011;50639;53.270;7.956;2023-09-18T03:10:57;22.92;;;17.80;;
64297;SDS011;50639;53.270;7.956;2023-09-18T03:13:22;20.50;;;13.32;;
64297;SDS011;50639;53.270;7.956;2023-09-18T03:15:48;17.63;;;13.35;;
64297;SDS011;50639;53.270;7.956;2023-09-18T03:18:14;14.40;;;12.05;;
64297;SDS011;50639;53.270;7.956;2023-09-18T03:20:41;18.92;;;13.55;;
64297;SDS011;50639;53.270;7.956;2023-09-18T03:23:08;15.07;;;12.13;;
64297;SDS011;50639;53.270;7.956;2023-09-18T03:25:33;21.23;;;16.95;;
64297;SDS011;50639;53.270;7.956;2023-09-18T03:27:59;17.63;;;13.90;;
64297;SDS011;50639;53.270;7.956;2023-09-18T03:30:28;15.63;;;12.38;;
64297;SDS011;50639;53.270;7.956;2023-09-18T03:32:54;14.50;;;12.18;;
64297;SDS011;50639;53.270;7.956;2023-09-18T03:35:22;16.08;;;11.63;;
64297;SDS011;50639;53.270;7.956;2023-09-18T03:37:49;15.75;;;13.15;;
64297;SDS011;50639;53.270;7.956;2023-09-18T03:40:16;14.68;;;11.70;;
64297;SDS011;50639;53.270;7.956;2023-09-18T03:42:42;14.65;;;10.85;;
64297;SDS011;50639;53.270;7.956;2023-09-18T03:45:08;17.30;;;12.60;;
64297;SDS011;50639;53.270;7.956;2023-09-18T03:50:02;13.48;;;10.32;;
64297;SDS011;50639;53.270;7.956;2023-09-18T03:52:28;14.45;;;10.82;;
64297;SDS011;50639;53.270;7.956;2023-09-18T03:54:54;14.85;;;9.98;;
64297;SDS011;50639;53.270;7.956;2023-09-18T03:57:20;15.85;;;11.88;;
64297;SDS011;50639;53.270;7.956;2023-09-18T03:59:45;11.65;;;9.60;;
64297;SDS011;50639;53.270;7.956;2023-09-18T04:02:11;13.70;;;11.20;;
64297;SDS011;50639;53.270;7.956;2023-09-18T04:04:37;13.80;;;9.27;;
64297;SDS011;50639;53.270;7.956;2023-09-18T04:07:05;15.75;;;12.32;;
64297;SDS011;50639;53.270;7.956;2023-09-18T04:09:31;14.60;;;10.50;;
64297;SDS011;50639;53.270;7.956;2023-09-18T04:11:57;13.27;;;9.02;;
64297;SDS011;50639;53.270;7.956;2023-09-18T04:14:23;14.60;;;10.32;;
64297;SDS011;50639;53.270;7.956;2023-09-18T04:16:49;13.10;;;9.60;;
64297;SDS011;50639;53.270;7.956;2023-09-18T04:19:15;16.95;;;11.43;;
64297;SDS011;50639;53.270;7.956;2023-09-18T04:21:40;13.25;;;9.95;;
64297;SDS011;50639;53.270;7.956;2023-09-18T04:24:06;13.55;;;10.02;;
64297;SDS011;50639;53.270;7.956;2023-09-18T04:26:32;13.27;;;9.90;;
64297;SDS011;50639;53.270;7.956;2023-09-18T04:28:59;15.37;;;10.60;;
64297;SDS011;50639;53.270;7.956;2023-09-18T04:31:26;11.00;;;8.38;;
64297;SDS011;50639;53.270;7.956;2023-09-18T04:33:53;13.77;;;9.68;;
64297;SDS011;50639;53.270;7.956;2023-09-18T04:36:19;16.17;;;10.27;;
64297;SDS011;50639;53.270;7.956;2023-09-18T04:38:45;14.63;;;9.38;;
64297;SDS011;50639;53.270;7.956;2023-09-18T04:41:10;12.23;;;9.40;;
64297;SDS011;50639;53.270;7.956;2023-09-18T04:43:37;13.17;;;9.53;;
64297;SDS011;50639;53.270;7.956;2023-09-18T04:46:06;13.32;;;8.73;;
64297;SDS011;50639;53.270;7.956;2023-09-18T04:48:32;11.80;;;10.18;;
64297;SDS011;50639;53.270;7.956;2023-09-18T04:50:59;15.68;;;9.95;;
64297;SDS011;50639;53.270;7.956;2023-09-18T04:53:29;11.73;;;9.35;;
64297;SDS011;50639;53.270;7.956;2023-09-18T04:55:55;11.32;;;8.70;;
64297;SDS011;50639;53.270;7.956;2023-09-18T04:58:21;14.05;;;9.80;;
64297;SDS011;50639;53.270;7.956;2023-09-18T05:00:56;10.23;;;8.73;;
64297;SDS011;50639;53.270;7.956;2023-09-18T05:03:25;14.05;;;8.85;;
64297;SDS011;50639;53.270;7.956;2023-09-18T05:05:52;15.07;;;9.43;;
64297;SDS011;50639;53.270;7.956;2023-09-18T05:08:17;18.77;;;9.60;;
64297;SDS011;50639;53.270;7.956;2023-09-18T05:10:43;10.75;;;8.73;;
64297;SDS011;50639;53.270;7.956;2023-09-18T05:13:08;18.27;;;9.55;;
64297;SDS011;50639;53.270;7.956;2023-09-18T05:15:35;12.27;;;9.05;;
64297;SDS011;50639;53.270;7.956;2023-09-18T05:18:01;15.15;;;9.27;;
64297;SDS011;50639;53.270;7.956;2023-09-18T05:20:27;16.98;;;9.13;;
64297;SDS011;50639;53.270;7.956;2023-09-18T05:22:54;13.65;;;8.48;;
64297;SDS011;50639;53.270;7.956;2023-09-18T05:25:21;13.63;;;9.02;;
64297;SDS011;50639;53.270;7.956;2023-09-18T05:27:48;12.60;;;10.02;;
64297;SDS011;50639;53.270;7.956;2023-09-18T05:30:24;14.60;;;8.85;;
64297;SDS011;50639;53.270;7.956;2023-09-18T05:32:59;12.10;;;9.30;;
64297;SDS011;50639;53.270;7.956;2023-09-18T05:35:50;12.32;;;9.00;;
64297;SDS011;50639;53.270;7.956;2023-09-18T05:38:16;13.48;;;9.50;;
64297;SDS011;50639;53.270;7.956;2023-09-18T05:40:43;13.70;;;8.85;;
64297;SDS011;50639;53.270;7.956;2023-09-18T05:43:09;15.75;;;8.90;;
64297;SDS011;50639;53.270;7.956;2023-09-18T05:45:36;12.65;;;8.07;;
64297;SDS011;50639;53.270;7.956;2023-09-18T05:48:01;11.27;;;7.68;;
64297;SDS011;50639;53.270;7.956;2023-09-18T05:50:31;10.65;;;7.93;;
64297;SDS011;50639;53.270;7.956;2023-09-18T05:52:58;15.90;;;7.93;;
64297;SDS011;50639;53.270;7.956;2023-09-18T05:55:26;12.43;;;7.40;;
64297;SDS011;50639;53.270;7.956;2023-09-18T05:57:52;14.60;;;8.18;;
64297;SDS011;50639;53.270;7.956;2023-09-18T06:00:18;13.07;;;7.50;;
64297;SDS011;50639;53.270;7.956;2023-09-18T06:02:44;13.07;;;7.38;;
64297;SDS011;50639;53.270;7.956;2023-09-18T06:05:10;11.57;;;7.20;;
64297;SDS011;50639;53.270;7.956;2023-09-18T06:07:36;10.65;;;6.63;;
64297;SDS011;50639;53.270;7.956;2023-09-18T06:10:02;12.63;;;7.05;;
64297;SDS011;50639;53.270;7.956;2023-09-18T06:12:28;14.15;;;7.40;;
64297;SDS011;50639;53.270;7.956;2023-09-18T06:14:54;11.38;;;7.15;;
64297;SDS011;50639;53.270;7.956;2023-09-18T06:17:20;13.13;;;7.53;;
64297;SDS011;50639;53.270;7.956;2023-09-18T06:19:45;10.65;;;7.00;;
64297;SDS011;50639;53.270;7.956;2023-09-18T06:22:11;12.70;;;6.97;;
64297;SDS011;50639;53.270;7.956;2023-09-18T06:24:37;12.10;;;7.00;;
64297;SDS011;50639;53.270;7.956;2023-09-18T06:27:03;12.38;;;6.60;;
64297;SDS011;50639;53.270;7.956;2023-09-18T06:29:33;9.05;;;6.28;;
64297;SDS011;50639;53.270;7.956;2023-09-18T06:31:59;9.32;;;6.63;;
64297;SDS011;50639;53.270;7.956;2023-09-18T06:34:25;10.30;;;6.70;;
64297;SDS011;50639;53.270;7.956;2023-09-18T06:36:51;10.52;;;7.05;;
64297;SDS011;50639;53.270;7.956;2023-09-18T06:39:16;10.45;;;6.50;;
64297;SDS011;50639;53.270;7.956;2023-09-18T06:41:42;10.07;;;6.40;;
64297;SDS011;50639;53.270;7.956;2023-09-18T06:44:11;11.95;;;6.80;;
64297;SDS011;50639;53.270;7.956;2023-09-18T06:46:36;12.57;;;6.90;;
64297;SDS011;50639;53.270;7.956;2023-09-18T06:49:02;13.30;;;6.50;;
64297;SDS011;50639;53.270;7.956;2023-09-18T06:51:28;11.38;;;6.93;;
64297;SDS011;50639;53.270;7.956;2023-09-18T06:53:54;9.52;;;6.90;;
64297;SDS011;50639;53.270;7.956;2023-09-18T06:56:20;15.90;;;6.90;;
64297;SDS011;50639;53.270;7.956;2023-09-18T06:58:45;11.75;;;7.07;;
64297;SDS011;50639;53.270;7.956;2023-09-18T07:03:40;16.25;;;6.85;;
64297;SDS011;50639;53.270;7.956;2023-09-18T07:06:06;9.05;;;6.07;;
64297;SDS011;50639;53.270;7.956;2023-09-18T07:08:31;13.15;;;7.60;;
64297;SDS011;50639;53.270;7.956;2023-09-18T07:10:58;15.05;;;9.10;;
64297;SDS011;50639;53.270;7.956;2023-09-18T07:13:23;15.55;;;8.20;;
64297;SDS011;50639;53.270;7.956;2023-09-18T07:15:49;13.77;;;6.03;;
64297;SDS011;50639;53.270;7.956;2023-09-18T07:18:14;11.40;;;7.25;;
64297;SDS011;50639;53.270;7.956;2023-09-18T07:20:40;11.20;;;6.78;;
64297;SDS011;50639;53.270;7.956;2023-09-18T07:23:07;11.63;;;5.97;;
64297;SDS011;50639;53.270;7.956;2023-09-18T07:25:32;9.18;;;5.40;;
64297;SDS011;50639;53.270;7.956;2023-09-18T07:27:57;9.82;;;5.28;;
64297;SDS011;50639;53.270;7.956;2023-09-18T07:30:23;13.48;;;5.95;;
64297;SDS011;50639;53.270;7.956;2023-09-18T07:32:52;9.20;;;5.63;;
64297;SDS011;50639;53.270;7.956;2023-09-18T07:35:21;13.60;;;7.05;;
64297;SDS011;50639;53.270;7.956;2023-09-18T07:37:47;10.90;;;6.00;;
64297;SDS011;50639;53.270;7.956;2023-09-18T07:40:13;12.98;;;5.88;;
64297;SDS011;50639;53.270;7.956;2023-09-18T07:42:38;10.27;;;6.05;;
64297;SDS011;50639;53.270;7.956;2023-09-18T07:45:04;11.73;;;5.75;;
64297;SDS011;50639;53.270;7.956;2023-09-18T07:47:30;12.52;;;5.78;;
64297;SDS011;50639;53.270;7.956;2023-09-18T07:49:56;10.85;;;5.35;;
64297;SDS011;50639;53.270;7.956;2023-09-18T07:52:22;11.05;;;5.78;;
64297;SDS011;50639;53.270;7.956;2023-09-18T07:54:47;11.43;;;5.30;;
64297;SDS011;50639;53.270;7.956;2023-09-18T07:57:13;13.82;;;5.35;;
64297;SDS011;50639;53.270;7.956;2023-09-18T07:59:38;11.32;;;5.28;;
64297;SDS011;50639;53.270;7.956;2023-09-18T08:02:05;16.30;;;5.40;;
64297;SDS011;50639;53.270;7.956;2023-09-18T08:04:31;11.27;;;5.65;;
64297;SDS011;50639;53.270;7.956;2023-09-18T08:06:57;11.02;;;5.72;;
64297;SDS011;50639;53.270;7.956;2023-09-18T08:09:22;10.43;;;5.38;;
64297;SDS011;50639;53.270;7.956;2023-09-18T08:11:48;16.73;;;7.03;;
64297;SDS011;50639;53.270;7.956;2023-09-18T08:14:15;11.55;;;5.50;;
64297;SDS011;50639;53.270;7.956;2023-09-18T08:16:42;11.95;;;5.40;;
64297;SDS011;50639;53.270;7.956;2023-09-18T08:19:07;11.52;;;5.90;;
64297;SDS011;50639;53.270;7.956;2023-09-18T08:21:33;12.55;;;6.43;;
64297;SDS011;50639;53.270;7.956;2023-09-18T08:23:58;15.15;;;6.45;;
64297;SDS011;50639;53.270;7.956;2023-09-18T08:26:24;12.07;;;6.32;;
64297;SDS011;50639;53.270;7.956;2023-09-18T08:28:50;14.38;;;6.20;;
64297;SDS011;50639;53.270;7.956;2023-09-18T08:31:16;14.98;;;6.38;;
64297;SDS011;50639;53.270;7.956;2023-09-18T08:33:42;13.95;;;6.60;;
64297;SDS011;50639;53.270;7.956;2023-09-18T08:36:08;16.98;;;7.18;;
64297;SDS011;50639;53.270;7.956;2023-09-18T08:38:34;11.23;;;6.05;;
64297;SDS011;50639;53.270;7.956;2023-09-18T08:40:59;10.52;;;5.78;;
64297;SDS011;50639;53.270;7.956;2023-09-18T08:43:25;13.73;;;6.75;;
64297;SDS011;50639;53.270;7.956;2023-09-18T08:45:55;18.10;;;6.82;;
64297;SDS011;50639;53.270;7.956;2023-09-18T08:48:27;14.85;;;6.57;;
64297;SDS011;50639;53.270;7.956;2023-09-18T08:51:01;16.08;;;6.65;;
64297;SDS011;50639;53.270;7.956;2023-09-18T08:53:30;12.30;;;7.30;;
64297;SDS011;50639;53.270;7.956;2023-09-18T08:55:56;14.88;;;7.80;;
64297;SDS011;50639;53.270;7.956;2023-09-18T08:58:24;12.77;;;7.38;;
64297;SDS011;50639;53.270;7.956;2023-09-18T09:00:51;13.23;;;7.05;;
64297;SDS011;50639;53.270;7.956;2023-09-18T09:03:17;16.08;;;7.55;;
64297;SDS011;50639;53.270;7.956;2023-09-18T09:05:43;12.98;;;6.78;;
64297;SDS011;50639;53.270;7.956;2023-09-18T09:08:08;11.15;;;6.53;;
64297;SDS011;50639;53.270;7.956;2023-09-18T09:10:34;20.63;;;7.50;;
64297;SDS011;50639;53.270;7.956;2023-09-18T09:12:59;15.00;;;7.47;;
64297;SDS011;50639;53.270;7.956;2023-09-18T09:18:02;13.75;;;7.70;;
64297;SDS011;50639;53.270;7.956;2023-09-18T09:20:29;13.53;;;7.67;;
64297;SDS011;50639;53.270;7.956;2023-09-18T09:22:55;13.50;;;7.50;;
64297;SDS011;50639;53.270;7.956;2023-09-18T09:25:26;18.58;;;8.50;;
64297;SDS011;50639;53.270;7.956;2023-09-18T09:27:54;14.85;;;7.13;;
64297;SDS011;50639;53.270;7.956;2023-09-18T09:30:21;13.38;;;7.45;;
64297;SDS011;50639;53.270;7.956;2023-09-18T09:32:51;16.25;;;7.30;;
64297;SDS011;50639;53.270;7.956;2023-09-18T09:35:19;13.85;;;7.20;;
64297;SDS011;50639;53.270;7.956;2023-09-18T09:37:45;14.60;;;7.75;;
64297;SDS011;50639;53.270;7.956;2023-09-18T09:40:11;14.35;;;8.40;;
64297;SDS011;50639;53.270;7.956;2023-09-18T09:42:42;14.38;;;7.40;;
64297;SDS011;50639;53.270;7.956;2023-09-18T09:45:11;16.00;;;7.25;;
64297;SDS011;50639;53.270;7.956;2023-09-18T09:47:38;15.13;;;8.13;;
64297;SDS011;50639;53.270;7.956;2023-09-18T09:50:07;13.50;;;8.20;;
64297;SDS011;50639;53.270;7.956;2023-09-18T09:52:35;16.08;;;8.20;;
64297;SDS011;50639;53.270;7.956;2023-09-18T09:55:01;16.50;;;7.88;;
64297;SDS011;50639;53.270;7.956;2023-09-18T09:57:30;15.30;;;7.65;;
64297;SDS011;50639;53.270;7.956;2023-09-18T10:00:03;14.40;;;7.68;;
64297;SDS011;50639;53.270;7.956;2023-09-18T10:02:53;15.35;;;7.43;;
64297;SDS011;50639;53.270;7.956;2023-09-18T10:05:23;13.80;;;7.75;;
64297;SDS011;50639;53.270;7.956;2023-09-18T10:07:51;12.38;;;6.93;;
64297;SDS011;50639;53.270;7.956;2023-09-18T10:10:19;13.25;;;7.25;;
64297;SDS011;50639;53.270;7.956;2023-09-18T10:12:44;12.10;;;6.93;;
64297;SDS011;50639;53.270;7.956;2023-09-18T10:15:11;16.70;;;7.13;;
64297;SDS011;50639;53.270;7.956;2023-09-18T10:17:41;14.18;;;6.72;;
64297;SDS011;50639;53.270;7.956;2023-09-18T10:20:12;15.02;;;6.85;;
64297;SDS011;50639;53.270;7.956;2023-09-18T10:22:45;13.95;;;6.95;;
64297;SDS011;50639;53.270;7.956;2023-09-18T10:25:17;14.65;;;6.95;;
64297;SDS011;50639;53.270;7.956;2023-09-18T10:27:49;15.95;;;6.78;;
64297;SDS011;50639;53.270;7.956;2023-09-18T10:30:22;15.13;;;7.18;;
64297;SDS011;50639;53.270;7.956;2023-09-18T10:32:48;12.85;;;7.03;;
64297;SDS011;50639;53.270;7.956;2023-09-18T10:35:15;15.52;;;6.85;;
64297;SDS011;50639;53.270;7.956;2023-09-18T10:37:41;13.38;;;6.68;;
64297;SDS011;50639;53.270;7.956;2023-09-18T10:40:11;18.45;;;6.63;;
64297;SDS011;50639;53.270;7.956;2023-09-18T10:42:37;12.37;;;6.93;;
64297;SDS011;50639;53.270;7.956;2023-09-18T10:47:30;12.13;;;5.97;;
64297;SDS011;50639;53.270;7.956;2023-09-18T10:49:57;13.48;;;6.07;;
64297;SDS011;50639;53.270;7.956;2023-09-18T10:52:23;13.85;;;5.97;;
64297;SDS011;50639;53.270;7.956;2023-09-18T10:54:48;15.75;;;6.90;;
64297;SDS011;50639;53.270;7.956;2023-09-18T10:57:14;16.10;;;6.75;;
64297;SDS011;50639;53.270;7.956;2023-09-18T10:59:43;12.35;;;6.10;;
64297;SDS011;50639;53.270;7.956;2023-09-18T11:02:13;12.93;;;5.70;;
64297;SDS011;50639;53.270;7.956;2023-09-18T11:04:41;13.07;;;5.25;;
64297;SDS011;50639;53.270;7.956;2023-09-18T11:07:07;14.65;;;5.90;;
64297;SDS011;50639;53.270;7.956;2023-09-18T11:09:41;11.52;;;5.85;;
64297;SDS011;50639;53.270;7.956;2023-09-18T11:12:09;12.73;;;5.82;;
64297;SDS011;50639;53.270;7.956;2023-09-18T11:14:43;10.95;;;5.32;;
64297;SDS011;50639;53.270;7.956;2023-09-18T11:20:07;12.38;;;5.25;;
64297;SDS011;50639;53.270;7.956;2023-09-18T11:22:35;9.05;;;5.00;;
64297;SDS011;50639;53.270;7.956;2023-09-18T11:27:53;10.88;;;4.70;;
64297;SDS011;50639;53.270;7.956;2023-09-18T11:30:21;9.60;;;4.65;;
64297;SDS011;50639;53.270;7.956;2023-09-18T11:32:48;11.15;;;5.10;;
64297;SDS011;50639;53.270;7.956;2023-09-18T11:35:14;8.93;;;4.32;;
64297;SDS011;50639;53.270;7.956;2023-09-18T11:37:42;11.10;;;4.70;;
64297;SDS011;50639;53.270;7.956;2023-09-18T11:40:28;9.77;;;4.30;;
64297;SDS011;50639;53.270;7.956;2023-09-18T11:45:51;11.10;;;4.00;;
64297;SDS011;50639;53.270;7.956;2023-09-18T11:48:21;9.40;;;3.95;;
64297;SDS011;50639;53.270;7.956;2023-09-18T11:50:49;9.38;;;3.80;;
64297;SDS011;50639;53.270;7.956;2023-09-18T11:53:17;8.35;;;3.90;;
64297;SDS011;50639;53.270;7.956;2023-09-18T11:55:46;11.40;;;3.90;;
64297;SDS011;50639;53.270;7.956;2023-09-18T11:58:12;10.85;;;3.92;;
64297;SDS011;50639;53.270;7.956;2023-09-18T12:00:38;6.93;;;3.42;;
64297;SDS011;50639;53.270;7.956;2023-09-18T12:03:17;14.73;;;4.32;;
64297;SDS011;50639;53.270;7.956;2023-09-18T12:05:56;8.70;;;3.60;;
64297;SDS011;50639;53.270;7.956;2023-09-18T12:08:24;9.77;;;3.80;;
64297;SDS011;50639;53.270;7.956;2023-09-18T12:10:55;7.70;;;3.38;;
64297;SDS011;50639;53.270;7.956;2023-09-18T12:13:22;6.32;;;2.83;;
64297;SDS011;50639;53.270;7.956;2023-09-18T12:15:50;8.13;;;3.38;;
64297;SDS011;50639;53.270;7.956;2023-09-18T12:18:24;7.80;;;3.50;;
64297;SDS011;50639;53.270;7.956;2023-09-18T12:20:50;8.48;;;3.42;;
64297;SDS011;50639;53.270;7.956;2023-09-18T12:23:16;9.95;;;3.22;;
64297;SDS011;50639;53.270;7.956;2023-09-18T12:25:47;6.43;;;3.13;;
64297;SDS011;50639;53.270;7.956;2023-09-18T12:28:14;13.38;;;3.30;;
64297;SDS011;50639;53.270;7.956;2023-09-18T12:30:41;8.00;;;3.13;;
64297;SDS011;50639;53.270;7.956;2023-09-18T12:33:07;7.23;;;3.20;;
64297;SDS011;50639;53.270;7.956;2023-09-18T12:35:32;5.95;;;3.17;;
64297;SDS011;50639;53.270;7.956;2023-09-18T12:37:59;6.45;;;3.00;;
64297;SDS011;50639;53.270;7.956;2023-09-18T12:40:30;6.10;;;2.97;;
64297;SDS011;50639;53.270;7.956;2023-09-18T12:42:59;8.75;;;2.92;;
64297;SDS011;50639;53.270;7.956;2023-09-18T12:45:26;6.60;;;3.03;;
64297;SDS011;50639;53.270;7.956;2023-09-18T12:47:54;5.50;;;3.00;;
64297;SDS011;50639;53.270;7.956;2023-09-18T12:50:21;6.45;;;2.95;;
64297;SDS011;50639;53.270;7.956;2023-09-18T12:52:46;5.18;;;2.90;;
64297;SDS011;50639;53.270;7.956;2023-09-18T12:55:24;6.93;;;3.03;;
64297;SDS011;50639;53.270;7.956;2023-09-18T12:57:52;6.85;;;2.97;;
64297;SDS011;50639;53.270;7.956;2023-09-18T13:00:19;6.77;;;2.90;;
64297;SDS011;50639;53.270;7.956;2023-09-18T13:02:51;7.25;;;2.90;;
64297;SDS011;50639;53.270;7.956;2023-09-18T13:05:20;7.30;;;2.78;;
64297;SDS011;50639;53.270;7.956;2023-09-18T13:07:50;9.02;;;2.92;;
64297;SDS011;50639;53.270;7.956;2023-09-18T13:10:15;6.07;;;2.80;;
64297;SDS011;50639;53.270;7.956;2023-09-18T13:12:48;6.57;;;2.78;;
64297;SDS011;50639;53.270;7.956;2023-09-18T13:15:30;5.25;;;2.83;;
64297;SDS011;50639;53.270;7.956;2023-09-18T13:17:58;8.60;;;2.85;;
64297;SDS011;50639;53.270;7.956;2023-09-18T13:20:26;7.47;;;2.63;;
64297;SDS011;50639;53.270;7.956;2023-09-18T13:22:55;4.97;;;2.75;;
64297;SDS011;50639;53.270;7.956;2023-09-18T13:25:22;5.15;;;2.67;;
64297;SDS011;50639;53.270;7.956;2023-09-18T13:27:50;9.55;;;3.03;;
64297;SDS011;50639;53.270;7.956;2023-09-18T13:30:16;4.60;;;2.78;;
64297;SDS011;50639;53.270;7.956;2023-09-18T13:32:46;5.57;;;2.53;;
64297;SDS011;50639;53.270;7.956;2023-09-18T13:35:18;6.97;;;2.60;;
64297;SDS011;50639;53.270;7.956;2023-09-18T13:37:44;8.93;;;3.45;;
64297;SDS011;50639;53.270;7.956;2023-09-18T13:40:10;7.13;;;2.85;;
64297;SDS011;50639;53.270;7.956;2023-09-18T13:42:36;5.70;;;2.60;;
64297;SDS011;50639;53.270;7.956;2023-09-18T13:45:03;4.40;;;2.45;;
64297;SDS011;50639;53.270;7.956;2023-09-18T13:47:32;8.15;;;2.70;;
64297;SDS011;50639;53.270;7.956;2023-09-18T13:52:26;8.63;;;2.88;;
64297;SDS011;50639;53.270;7.956;2023-09-18T13:54:52;3.70;;;2.30;;
64297;SDS011;50639;53.270;7.956;2023-09-18T13:57:18;7.68;;;2.67;;
64297;SDS011;50639;53.270;7.956;2023-09-18T13:59:44;3.83;;;2.40;;
64297;SDS011;50639;53.270;7.956;2023-09-18T14:02:14;6.13;;;2.40;;
64297;SDS011;50639;53.270;7.956;2023-09-18T14:04:40;4.30;;;2.50;;
64297;SDS011;50639;53.270;7.956;2023-09-18T14:07:06;5.50;;;2.63;;
64297;SDS011;50639;53.270;7.956;2023-09-18T14:09:31;6.75;;;2.50;;
64297;SDS011;50639;53.270;7.956;2023-09-18T14:11:57;5.60;;;2.70;;
64297;SDS011;50639;53.270;7.956;2023-09-18T14:14:22;4.18;;;2.10;;
64297;SDS011;50639;53.270;7.956;2023-09-18T14:16:48;4.72;;;2.10;;
64297;SDS011;50639;53.270;7.956;2023-09-18T14:19:15;5.53;;;2.75;;
64297;SDS011;50639;53.270;7.956;2023-09-18T14:21:41;6.17;;;2.80;;
64297;SDS011;50639;53.270;7.956;2023-09-18T14:24:07;5.13;;;2.40;;
64297;SDS011;50639;53.270;7.956;2023-09-18T14:26:33;5.68;;;2.50;;
64297;SDS011;50639;53.270;7.956;2023-09-18T14:29:06;5.53;;;2.10;;
64297;SDS011;50639;53.270;7.956;2023-09-18T14:31:33;7.05;;;2.47;;
64297;SDS011;50639;53.270;7.956;2023-09-18T14:33:58;5.57;;;2.53;;
64297;SDS011;50639;53.270;7.956;2023-09-18T14:36:25;5.97;;;2.47;;
64297;SDS011;50639;53.270;7.956;2023-09-18T14:38:51;7.60;;;2.50;;
64297;SDS011;50639;53.270;7.956;2023-09-18T14:41:16;5.05;;;2.42;;
64297;SDS011;50639;53.270;7.956;2023-09-18T14:43:43;6.55;;;2.50;;
64297;SDS011;50639;53.270;7.956;2023-09-18T14:46:10;7.40;;;2.45;;
64297;SDS011;50639;53.270;7.956;2023-09-18T14:48:36;5.90;;;2.60;;
64297;SDS011;50639;53.270;7.956;2023-09-18T14:51:02;6.13;;;2.40;;
64297;SDS011;50639;53.270;7.956;2023-09-18T14:53:28;4.03;;;2.30;;
64297;SDS011;50639;53.270;7.956;2023-09-18T14:55:53;5.35;;;2.75;;
64297;SDS011;50639;53.270;7.956;2023-09-18T14:58:21;5.00;;;2.42;;